Wellsburg, New York
Current Conditions -  °F | °C
As of 10:06 PM on Tuesday 21 Oct 2014 (Local Time) from KELM Reporting Station
Overcast Overcast  
Wind Chill: 51°   Ceiling: 2200
Heat Index: 51°   Visibility: 10mi
Dew Point: 49°   Wind: 0mph
Humidity: 92%   Direction: NA
Pressure: 29.98"   Gusts: NA
Location:  42.02°N, 76.73°W
Report Text: KELM 220206Z 00000KT 10SM FEW014 OVC022 11/09 A2998 RMK AO2 T01060094
Loading
Personal Weather Stations






























Interactive Weather Map
Tropical Storm Tracking
New forecast layout! Learn more

10-Day Weather Forecast

Advertisements
Track Severe Weather on mobile